HRYR/KGL METAR and TAF weather

Enter ICAO airport designator
Station Type Date Time Source
HRYR METAR 2021/03/01 10:00 UTC NOAA

HRYR 011000Z 19005KT 110V240 9999 SCT025 BKN300 26/16 Q1018 NOSIG


Station Type Date Time Source
HRYR Decoded METAR 2021/03/01 10:00 UTC NOAA

Kigali, Rwanda (HRYR) 01-58S 030-07E 1497M
Mar 01, 2021 - 05:00 AM EST / 2021.03.01 1000 UTC
Wind: from the S (190 degrees) at 6 MPH (5 KT) (direction variable):0
Visibility: greater than 7 mile(s):0
Sky conditions: mostly cloudy
Temperature: 78 F (26 C)
Dew Point: 60 F (16 C)
Relative Humidity: 54%
Pressure (altimeter): 30.06 in. Hg (1018 hPa)
ob: HRYR 011000Z 19005KT 110V240 9999 SCT025 BKN300 26/16 Q1018 NOSIG
cycle: 10

Station Type Date Time Source
HRYR TAF 2021/03/01 06:54 UTC NOAA

TAF HRYR 010500Z 0106/0212 31003KT 9999 SCT025
TEMPO 0112/0117 07012KT FEW022CB SCT025
BECMG 0118/0122 33003KT FEW026
BECMG 0202/0205 00000KT 8000 FM 020900 08009KT 9999 BKN025
TEMPO 0212/0216 10012KT FEW022CB BKN025

Example: see airport list